Dahli Brooke — WDH3184 — position and weather

sailwx.info

Track history (hours):
 
Tides and Currents Weather Stations Pressure Air Temp Water Temp Dewpoint Dewpoint Depression Visibility Wind Speed Wind Dir Waves Ship Positions

Dahli Brooke

Owner: Dahli Brooke, LLC., Sulphur, LA. More information available from US FCC via Universal Licensing System and Coast Guard Vessel Documentation Center.

Last reported at 2017-Nov-23 04:14 UTC. Time now 2017-Nov-23 05:08 UTC.
Position N 29°32' W 094°53'.

Length 25 m.

Type: Fishing. MMSI: 367605130.

Date/timePositionNaut miles runAvg speedWind from/ knotsBaromVisibWave heightAir tempDewpointWater temp
2017-Nov-23 04:14N 29°32' W 094°53'2 7.3
2017-Nov-23 04:00N 29°33' W 094°54'4 7.6
2017-Nov-23 03:30N 29°36' W 094°57'4 7.6
2017-Nov-23 03:00N 29°40' W 094°58'4 7.3
2017-Nov-23 02:30N 29°42' W 095°01'4 7.1
2017-Nov-23 01:57N 29°45' W 095°04'4 6.0
2017-Nov-23 01:21N 29°44' W 095°08'3 7.8
2017-Nov-23 00:57N 29°45' W 095°11'3 7.1
2017-Nov-23 00:28N 29°43' W 095°15'1 2.4
2017-Nov-23 00:00N 29°43' W 095°16'0 0.0
2017-Nov-22 23:30N 29°43' W 095°16'0 0.0
2017-Nov-22 23:00N 29°43' W 095°16'0 0.0
2017-Nov-22 22:30N 29°43' W 095°16'0 0.0
2017-Nov-22 22:00N 29°43' W 095°16'0 0.0
2017-Nov-22 21:30N 29°43' W 095°16'0 0.0
2017-Nov-22 21:00N 29°43' W 095°16'0 0.0
2017-Nov-22 20:30N 29°43' W 095°16'0 0.0
2017-Nov-22 20:00N 29°43' W 095°16'0 0.0
2017-Nov-22 19:30N 29°43' W 095°16'  
2017-Nov-19 22:14N 29°44' W 095°14'3 7.7
2017-Nov-19 21:48N 29°45' W 095°10'3 7.8
2017-Nov-19 21:25N 29°44' W 095°07'3 5.8
2017-Nov-19 20:51N 29°44' W 095°03'2 2.0
2017-Nov-19 20:05N 29°44' W 095°01'1 8.2
2017-Nov-19 19:55N 29°44' W 095°03'9 0.4
2017-Nov-18 18:35N 29°43' W 095°14'3 7.3
2017-Nov-18 18:11N 29°45' W 095°11'2 7.6
2017-Nov-18 17:57N 29°44' W 095°09'4 7.5
2017-Nov-18 17:26N 29°46' W 095°05'3 7.5
2017-Nov-18 16:59N 29°44' W 095°02'0 0.0
2017-Nov-18 05:01N 29°44' W 095°01'1 6.9
2017-Nov-18 04:50N 29°44' W 095°03'3 0.5
2017-Nov-17 23:07N 29°46' W 095°05'2 8.4
2017-Nov-17 22:51N 29°44' W 095°03'3 6.5
2017-Nov-17 22:25N 29°42' W 095°01'4 8.7
2017-Nov-17 22:00N 29°40' W 094°58'4 8.9
2017-Nov-17 21:30N 29°36' W 094°57'5 9.2
2017-Nov-17 21:00N 29°32' W 094°53'0 0.0
2017-Nov-16 23:32N 29°32' W 094°54'0 7.0
2017-Nov-16 23:30N 29°32' W 094°54'4 7.6
2017-Nov-16 23:00N 29°35' W 094°56'4 7.7
2017-Nov-16 22:30N 29°38' W 094°58'4 7.6
2017-Nov-16 22:00N 29°42' W 094°60'3 6.4
2017-Nov-16 21:29N 29°44' W 095°03'5 5.9
2017-Nov-16 20:41N 29°44' W 095°08'4 7.1
2017-Nov-16 20:03N 29°44' W 095°13'0 8.1
2017-Nov-16 20:00N 29°43' W 095°14'2 4.4
2017-Nov-16 19:30N 29°43' W 095°16'0 0.0
2017-Nov-16 19:00N 29°43' W 095°16'0 0.0
2017-Nov-16 18:30N 29°43' W 095°16'0 0.0
2017-Nov-16 18:00N 29°43' W 095°16'0 0.0
2017-Nov-16 17:30N 29°43' W 095°16'0 0.0
2017-Nov-16 17:00N 29°43' W 095°16'0 0.0
2017-Nov-16 16:30N 29°43' W 095°16'0 0.0
2017-Nov-16 16:00N 29°43' W 095°16'0 0.0
2017-Nov-16 15:30N 29°43' W 095°16'0 0.0
2017-Nov-16 15:00N 29°43' W 095°16'0 0.0
2017-Nov-16 14:30N 29°43' W 095°16'0 0.0
2017-Nov-16 14:00N 29°43' W 095°16'0 0.0
2017-Nov-16 13:30N 29°43' W 095°16'0 0.0
2017-Nov-16 13:00N 29°43' W 095°16'0 0.1
2017-Nov-16 12:28N 29°43' W 095°16'2 4.8
2017-Nov-16 12:00N 29°44' W 095°14'4 6.9
2017-Nov-16 11:26N 29°44' W 095°09'4 7.4
2017-Nov-16 10:54N 29°46' W 095°05'3 7.7
2017-Nov-16 10:30N 29°44' W 095°02'1 0.1
2017-Nov-16 02:47N 29°44' W 095°03'3 1.2
2017-Nov-16 00:44N 29°46' W 095°05'2 6.9
2017-Nov-16 00:23N 29°44' W 095°03'0 0.1
2017-Nov-15 20:23N 29°44' W 095°03'3 5.7
2017-Nov-15 19:50N 29°45' W 095°06'4 8.2
2017-Nov-15 19:21N 29°45' W 095°11'3 8.3
2017-Nov-15 18:59N 29°43' W 095°14'2 4.6
2017-Nov-15 18:30N 29°43' W 095°16'0 0.0
2017-Nov-15 18:00N 29°43' W 095°16'0 0.0
2017-Nov-15 17:30N 29°43' W 095°16'0 0.0
2017-Nov-15 17:00N 29°43' W 095°16'0 0.0
2017-Nov-15 16:30N 29°43' W 095°16'0 0.0
2017-Nov-15 16:00N 29°43' W 095°16'0 0.0
2017-Nov-15 15:30N 29°43' W 095°16'0 0.0
2017-Nov-15 14:59N 29°43' W 095°16'0 0.0
2017-Nov-15 14:30N 29°43' W 095°16'0 0.0
2017-Nov-15 13:58N 29°43' W 095°16'0 0.0
2017-Nov-15 13:27N 29°43' W 095°16'0 0.0
2017-Nov-15 13:00N 29°43' W 095°16'0 0.1
2017-Nov-15 12:30N 29°43' W 095°16'0 0.0
2017-Nov-15 11:49N 29°43' W 095°16'0 0.0
2017-Nov-15 11:24N 29°43' W 095°16'0 0.0
2017-Nov-15 10:57N 29°43' W 095°16'0 0.0
2017-Nov-15 06:09N 29°43' W 095°16'0 0.0
2017-Nov-15 05:05N 29°43' W 095°16'0 0.0
2017-Nov-15 04:41N 29°43' W 095°16'0 0.0
2017-Nov-15 04:29N 29°43' W 095°16'0 0.2
2017-Nov-15 03:58N 29°43' W 095°16'1 2.6
2017-Nov-15 03:30N 29°43' W 095°15'4 7.2
2017-Nov-15 02:57N 29°45' W 095°11'3 7.5
2017-Nov-15 02:30N 29°44' W 095°07'3 4.9
2017-Nov-15 01:54N 29°44' W 095°03'2 4.1
2017-Nov-15 01:26N 29°44' W 095°01'5 3.3
2017-Nov-14 23:59N 29°46' W 095°06'3 6.2
2017-Nov-14 23:28N 29°44' W 095°03'2 0.3
2017-Nov-14 18:17N 29°44' W 095°01'0 0.0
2017-Nov-14 17:49N 29°44' W 095°01'0 0.0
2017-Nov-14 07:33N 29°44' W 095°01'1 7.1
2017-Nov-14 07:24N 29°44' W 095°03'3 3.1
2017-Nov-14 06:22N 29°46' W 095°05'3 7.4
2017-Nov-14 06:00N 29°44' W 095°03'3 7.0
2017-Nov-14 05:31N 29°42' W 095°00'4 8.4
2017-Nov-14 05:00N 29°38' W 094°58'4 8.8
2017-Nov-14 04:30N 29°34' W 094°55'4 8.3
2017-Nov-14 04:00N 29°31' W 094°53'  
Track history (hours):
 
Tides and Currents Weather Stations Pressure Air Temp Water Temp Dewpoint Dewpoint Depression Visibility Wind Speed Wind Dir Waves Ship Positions

Dahli Brooke

Owner: Dahli Brooke, LLC., Sulphur, LA. More information available from US FCC via Universal Licensing System and Coast Guard Vessel Documentation Center.

Last reported at 2017-Nov-23 04:14 UTC. Time now 2017-Nov-23 05:08 UTC.
Position N 29°32' W 094°53'.

Length 25 m.

Type: Fishing. MMSI: 367605130.

Date/timePositionNaut miles runAvg speedWind from/ knotsBaromVisibWave heightAir tempDewpointWater temp
2017-Nov-23 04:14N 29°32' W 094°53'2 7.3
2017-Nov-23 04:00N 29°33' W 094°54'4 7.6
2017-Nov-23 03:30N 29°36' W 094°57'4 7.6
2017-Nov-23 03:00N 29°40' W 094°58'4 7.3
2017-Nov-23 02:30N 29°42' W 095°01'4 7.1
2017-Nov-23 01:57N 29°45' W 095°04'4 6.0
2017-Nov-23 01:21N 29°44' W 095°08'3 7.8
2017-Nov-23 00:57N 29°45' W 095°11'3 7.1
2017-Nov-23 00:28N 29°43' W 095°15'1 2.4
2017-Nov-23 00:00N 29°43' W 095°16'0 0.0
2017-Nov-22 23:30N 29°43' W 095°16'0 0.0
2017-Nov-22 23:00N 29°43' W 095°16'0 0.0
2017-Nov-22 22:30N 29°43' W 095°16'0 0.0
2017-Nov-22 22:00N 29°43' W 095°16'0 0.0
2017-Nov-22 21:30N 29°43' W 095°16'0 0.0
2017-Nov-22 21:00N 29°43' W 095°16'0 0.0
2017-Nov-22 20:30N 29°43' W 095°16'0 0.0
2017-Nov-22 20:00N 29°43' W 095°16'0 0.0
2017-Nov-22 19:30N 29°43' W 095°16'  
2017-Nov-19 22:14N 29°44' W 095°14'3 7.7
2017-Nov-19 21:48N 29°45' W 095°10'3 7.8
2017-Nov-19 21:25N 29°44' W 095°07'3 5.8
2017-Nov-19 20:51N 29°44' W 095°03'2 2.0
2017-Nov-19 20:05N 29°44' W 095°01'1 8.2
2017-Nov-19 19:55N 29°44' W 095°03'9 0.4
2017-Nov-18 18:35N 29°43' W 095°14'3 7.3
2017-Nov-18 18:11N 29°45' W 095°11'2 7.6
2017-Nov-18 17:57N 29°44' W 095°09'4 7.5
2017-Nov-18 17:26N 29°46' W 095°05'3 7.5
2017-Nov-18 16:59N 29°44' W 095°02'0 0.0
2017-Nov-18 05:01N 29°44' W 095°01'1 6.9
2017-Nov-18 04:50N 29°44' W 095°03'3 0.5
2017-Nov-17 23:07N 29°46' W 095°05'2 8.4
2017-Nov-17 22:51N 29°44' W 095°03'3 6.5
2017-Nov-17 22:25N 29°42' W 095°01'4 8.7
2017-Nov-17 22:00N 29°40' W 094°58'4 8.9
2017-Nov-17 21:30N 29°36' W 094°57'5 9.2
2017-Nov-17 21:00N 29°32' W 094°53'0 0.0
2017-Nov-16 23:32N 29°32' W 094°54'0 7.0
2017-Nov-16 23:30N 29°32' W 094°54'4 7.6
2017-Nov-16 23:00N 29°35' W 094°56'4 7.7
2017-Nov-16 22:30N 29°38' W 094°58'4 7.6
2017-Nov-16 22:00N 29°42' W 094°60'3 6.4
2017-Nov-16 21:29N 29°44' W 095°03'5 5.9
2017-Nov-16 20:41N 29°44' W 095°08'4 7.1
2017-Nov-16 20:03N 29°44' W 095°13'0 8.1
2017-Nov-16 20:00N 29°43' W 095°14'2 4.4
2017-Nov-16 19:30N 29°43' W 095°16'0 0.0
2017-Nov-16 19:00N 29°43' W 095°16'0 0.0
2017-Nov-16 18:30N 29°43' W 095°16'0 0.0
2017-Nov-16 18:00N 29°43' W 095°16'0 0.0
2017-Nov-16 17:30N 29°43' W 095°16'0 0.0
2017-Nov-16 17:00N 29°43' W 095°16'0 0.0
2017-Nov-16 16:30N 29°43' W 095°16'0 0.0
2017-Nov-16 16:00N 29°43' W 095°16'0 0.0
2017-Nov-16 15:30N 29°43' W 095°16'0 0.0
2017-Nov-16 15:00N 29°43' W 095°16'0 0.0
2017-Nov-16 14:30N 29°43' W 095°16'0 0.0
2017-Nov-16 14:00N 29°43' W 095°16'0 0.0
2017-Nov-16 13:30N 29°43' W 095°16'0 0.0
2017-Nov-16 13:00N 29°43' W 095°16'0 0.1
2017-Nov-16 12:28N 29°43' W 095°16'2 4.8
2017-Nov-16 12:00N 29°44' W 095°14'4 6.9
2017-Nov-16 11:26N 29°44' W 095°09'4 7.4
2017-Nov-16 10:54N 29°46' W 095°05'3 7.7
2017-Nov-16 10:30N 29°44' W 095°02'1 0.1
2017-Nov-16 02:47N 29°44' W 095°03'3 1.2
2017-Nov-16 00:44N 29°46' W 095°05'2 6.9
2017-Nov-16 00:23N 29°44' W 095°03'0 0.1
2017-Nov-15 20:23N 29°44' W 095°03'3 5.7
2017-Nov-15 19:50N 29°45' W 095°06'4 8.2
2017-Nov-15 19:21N 29°45' W 095°11'3 8.3
2017-Nov-15 18:59N 29°43' W 095°14'2 4.6
2017-Nov-15 18:30N 29°43' W 095°16'0 0.0
2017-Nov-15 18:00N 29°43' W 095°16'0 0.0
2017-Nov-15 17:30N 29°43' W 095°16'0 0.0
2017-Nov-15 17:00N 29°43' W 095°16'0 0.0
2017-Nov-15 16:30N 29°43' W 095°16'0 0.0
2017-Nov-15 16:00N 29°43' W 095°16'0 0.0
2017-Nov-15 15:30N 29°43' W 095°16'0 0.0
2017-Nov-15 14:59N 29°43' W 095°16'0 0.0
2017-Nov-15 14:30N 29°43' W 095°16'0 0.0
2017-Nov-15 13:58N 29°43' W 095°16'0 0.0
2017-Nov-15 13:27N 29°43' W 095°16'0 0.0
2017-Nov-15 13:00N 29°43' W 095°16'0 0.1
2017-Nov-15 12:30N 29°43' W 095°16'0 0.0
2017-Nov-15 11:49N 29°43' W 095°16'0 0.0
2017-Nov-15 11:24N 29°43' W 095°16'0 0.0
2017-Nov-15 10:57N 29°43' W 095°16'0 0.0
2017-Nov-15 06:09N 29°43' W 095°16'0 0.0
2017-Nov-15 05:05N 29°43' W 095°16'0 0.0
2017-Nov-15 04:41N 29°43' W 095°16'0 0.0
2017-Nov-15 04:29N 29°43' W 095°16'0 0.2
2017-Nov-15 03:58N 29°43' W 095°16'1 2.6
2017-Nov-15 03:30N 29°43' W 095°15'4 7.2
2017-Nov-15 02:57N 29°45' W 095°11'3 7.5
2017-Nov-15 02:30N 29°44' W 095°07'3 4.9
2017-Nov-15 01:54N 29°44' W 095°03'2 4.1
2017-Nov-15 01:26N 29°44' W 095°01'5 3.3
2017-Nov-14 23:59N 29°46' W 095°06'3 6.2
2017-Nov-14 23:28N 29°44' W 095°03'2 0.3
2017-Nov-14 18:17N 29°44' W 095°01'0 0.0
2017-Nov-14 17:49N 29°44' W 095°01'0 0.0
2017-Nov-14 07:33N 29°44' W 095°01'1 7.1
2017-Nov-14 07:24N 29°44' W 095°03'3 3.1
2017-Nov-14 06:22N 29°46' W 095°05'3 7.4
2017-Nov-14 06:00N 29°44' W 095°03'3 7.0
2017-Nov-14 05:31N 29°42' W 095°00'4 8.4
2017-Nov-14 05:00N 29°38' W 094°58'4 8.8
2017-Nov-14 04:30N 29°34' W 094°55'4 8.3
2017-Nov-14 04:00N 29°31' W 094°53'  

Dump ship's entire track history